createdAt,value
2022-12-14T00:01:28.014Z,19.60
2022-12-14T00:03:58.753Z,19.00
2022-12-14T00:06:29.990Z,19.17
2022-12-14T00:09:01.594Z,19.20
2022-12-14T00:11:31.801Z,18.90
2022-12-14T00:14:05.994Z,19.03
2022-12-14T00:16:36.962Z,18.70
2022-12-14T00:19:09.983Z,18.97
2022-12-14T00:21:39.737Z,19.90
2022-12-14T00:24:10.530Z,18.57
2022-12-14T00:26:40.417Z,18.07
2022-12-14T00:29:12.829Z,18.60
2022-12-14T00:31:42.640Z,18.00
2022-12-14T00:34:12.422Z,19.00
2022-12-14T00:36:42.155Z,17.73
2022-12-14T00:39:11.900Z,18.00
2022-12-14T00:41:41.620Z,18.47
2022-12-14T00:44:14.000Z,18.97
2022-12-14T00:46:43.769Z,17.93
2022-12-14T00:49:14.152Z,18.53
2022-12-14T00:51:44.004Z,19.03
2022-12-14T00:54:13.840Z,18.47
2022-12-14T00:56:43.748Z,18.57
2022-12-14T00:59:16.145Z,19.37
2022-12-14T01:01:45.987Z,18.07
2022-12-14T01:04:23.253Z,18.43
2022-12-14T01:06:54.654Z,17.70
2022-12-14T01:09:26.268Z,17.90
2022-12-14T01:11:56.156Z,18.90
2022-12-14T01:14:28.460Z,17.63
2022-12-14T01:16:58.296Z,17.47
2022-12-14T01:19:27.994Z,16.97
2022-12-14T01:21:57.712Z,17.27
2022-12-14T01:24:27.704Z,18.33
2022-12-14T01:26:57.443Z,17.70
2022-12-14T01:29:29.866Z,18.60
2022-12-14T01:31:59.615Z,17.43
2022-12-14T01:34:29.393Z,17.23
2022-12-14T01:36:59.117Z,17.90
2022-12-14T01:39:28.923Z,17.60
2022-12-14T01:41:59.395Z,16.47
2022-12-14T01:44:58.026Z,18.13
2022-12-14T01:47:37.105Z,17.83
2022-12-14T01:50:17.132Z,18.07
2022-12-14T01:52:49.875Z,17.67
2022-12-14T01:55:23.480Z,17.20
2022-12-14T01:57:57.595Z,17.77
2022-12-14T02:00:30.187Z,17.70
2022-12-14T02:03:02.844Z,17.03
2022-12-14T02:05:35.960Z,17.00
2022-12-14T02:08:07.149Z,17.53
2022-12-14T02:10:37.233Z,17.63
2022-12-14T02:13:14.757Z,17.83
2022-12-14T02:15:47.423Z,17.27
2022-12-14T02:18:23.287Z,18.13
2022-12-14T02:21:17.288Z,18.87
2022-12-14T02:24:31.933Z,16.70
2022-12-14T02:27:12.121Z,17.00
2022-12-14T02:30:06.746Z,18.03
2022-12-14T02:32:52.300Z,16.87
2022-12-14T02:35:33.397Z,16.80
2022-12-14T02:38:16.787Z,17.83
2022-12-14T02:40:57.961Z,16.27
2022-12-14T02:43:34.987Z,17.37
2022-12-14T02:46:19.593Z,16.77
2022-12-14T02:48:57.650Z,17.73
2022-12-14T02:51:35.821Z,16.83
2022-12-14T02:54:11.147Z,17.23
2022-12-14T02:56:47.112Z,17.80
2022-12-14T02:59:19.318Z,17.20
2022-12-14T03:01:54.528Z,17.13
2022-12-14T03:04:24.564Z,17.13
2022-12-14T03:07:02.789Z,17.13
2022-12-14T03:09:34.318Z,16.90
2022-12-14T03:12:10.211Z,17.07
2022-12-14T03:14:45.872Z,16.93
2022-12-14T03:17:22.020Z,17.00
2022-12-14T03:19:56.353Z,18.20
2022-12-14T03:22:31.079Z,16.17
2022-12-14T03:25:04.606Z,16.73
2022-12-14T03:27:38.561Z,16.80
2022-12-14T03:30:13.590Z,17.47
2022-12-14T03:32:50.537Z,17.20
2022-12-14T03:35:24.137Z,16.37
2022-12-14T03:38:00.182Z,17.67
2022-12-14T03:40:36.774Z,17.57
2022-12-14T03:43:18.403Z,16.40
2022-12-14T03:45:54.910Z,15.63
2022-12-14T03:48:34.685Z,17.37
2022-12-14T03:51:11.753Z,17.80
2022-12-14T03:53:47.849Z,16.43
2022-12-14T03:56:22.835Z,16.87
2022-12-14T03:59:03.889Z,17.27
2022-12-14T04:01:43.518Z,15.83
2022-12-14T04:04:22.324Z,16.80
2022-12-14T04:06:58.399Z,15.87
2022-12-14T04:09:34.189Z,15.77
2022-12-14T04:12:21.174Z,16.20
2022-12-14T04:15:07.839Z,16.10
2022-12-14T04:17:53.638Z,15.40
2022-12-14T04:20:30.940Z,15.60
2022-12-14T04:23:06.123Z,15.13
2022-12-14T04:25:52.553Z,17.37
2022-12-14T04:28:39.011Z,16.70
2022-12-14T04:31:12.749Z,15.93
2022-12-14T04:33:50.946Z,16.43
2022-12-14T04:36:28.207Z,15.77
2022-12-14T04:39:03.361Z,16.63
2022-12-14T04:41:38.150Z,16.90
2022-12-14T04:44:14.268Z,16.33
2022-12-14T04:46:44.679Z,16.50
2022-12-14T04:49:22.305Z,16.43
2022-12-14T04:52:05.200Z,16.83
2022-12-14T04:54:40.593Z,17.23
2022-12-14T04:57:18.918Z,16.30
2022-12-14T04:59:50.151Z,17.00
2022-12-14T05:02:25.599Z,16.20
2022-12-14T05:05:05.476Z,17.57
2022-12-14T05:07:52.757Z,17.57
2022-12-14T05:10:28.929Z,16.77
2022-12-14T05:13:05.211Z,16.90
2022-12-14T05:15:39.173Z,17.47
2022-12-14T05:18:10.276Z,16.97
2022-12-14T05:20:40.049Z,17.23
2022-12-14T05:23:12.420Z,18.07
2022-12-14T05:25:42.194Z,17.37
2022-12-14T05:28:13.175Z,16.83
2022-12-14T05:30:43.028Z,17.37
2022-12-14T05:33:21.429Z,17.53
2022-12-14T05:35:51.332Z,16.67
2022-12-14T05:38:23.635Z,17.13
2022-12-14T05:40:53.371Z,16.03
2022-12-14T05:43:23.249Z,16.80
2022-12-14T05:45:53.150Z,16.57
2022-12-14T05:48:22.944Z,17.03
2022-12-14T05:50:52.681Z,16.70
2022-12-14T05:53:25.370Z,16.80
2022-12-14T05:55:56.075Z,16.77
2022-12-14T05:58:25.897Z,18.30
2022-12-14T06:00:55.687Z,16.83
2022-12-14T06:03:26.164Z,16.80
2022-12-14T06:05:56.137Z,17.63
2022-12-14T06:08:28.448Z,17.13
2022-12-14T06:11:04.981Z,17.67
2022-12-14T06:13:34.702Z,17.17
2022-12-14T06:16:15.646Z,16.90
2022-12-14T06:18:47.295Z,18.37
2022-12-14T06:21:20.424Z,17.83
2022-12-14T06:23:52.750Z,17.17
2022-12-14T06:26:22.815Z,17.87
2022-12-14T06:28:52.906Z,17.20
2022-12-14T06:31:25.091Z,16.90
2022-12-14T06:33:56.545Z,17.63
2022-12-14T06:36:28.133Z,16.50
2022-12-14T06:39:04.464Z,17.13
2022-12-14T06:41:34.592Z,16.90
2022-12-14T06:44:08.360Z,16.33
2022-12-14T06:46:38.985Z,17.33
2022-12-14T06:49:10.415Z,18.23
2022-12-14T06:51:42.369Z,16.63
2022-12-14T06:54:15.852Z,17.17
2022-12-14T06:56:47.280Z,16.70
2022-12-14T06:59:18.060Z,17.93
2022-12-14T07:01:49.834Z,18.03
2022-12-14T07:04:21.631Z,17.33
2022-12-14T07:06:51.643Z,18.20
2022-12-14T07:09:24.004Z,17.67
2022-12-14T07:11:53.998Z,18.07
2022-12-14T07:14:23.709Z,18.43
2022-12-14T07:16:53.400Z,16.77
2022-12-14T07:19:23.209Z,17.70
2022-12-14T07:21:53.041Z,17.37
2022-12-14T07:24:25.397Z,16.90
2022-12-14T07:26:56.484Z,17.97
2022-12-14T07:29:31.095Z,17.20
2022-12-14T07:32:03.963Z,16.47
2022-12-14T07:34:33.816Z,17.07
2022-12-14T07:37:03.578Z,18.23
2022-12-14T07:39:35.911Z,16.00
2022-12-14T07:42:05.623Z,15.60
2022-12-14T07:44:35.354Z,16.90
2022-12-14T07:47:05.102Z,17.57
2022-12-14T07:49:34.853Z,17.87
2022-12-14T07:52:04.552Z,17.33
2022-12-14T07:54:36.929Z,15.90
2022-12-14T07:57:09.607Z,16.87
2022-12-14T07:59:39.352Z,17.60
2022-12-14T08:02:09.321Z,17.23
2022-12-14T08:04:39.348Z,18.70
2022-12-14T08:07:09.198Z,17.47
2022-12-14T08:09:41.718Z,17.40
2022-12-14T08:12:11.468Z,17.73
2022-12-14T08:14:41.235Z,17.37
2022-12-14T08:17:10.964Z,17.30
2022-12-14T08:19:40.791Z,17.50
2022-12-14T08:22:10.773Z,16.67
2022-12-14T08:24:43.252Z,16.77
2022-12-14T08:27:19.372Z,17.53
2022-12-14T08:29:49.167Z,17.27
2022-12-14T08:32:19.448Z,18.37
2022-12-14T08:34:49.686Z,16.97
2022-12-14T08:37:19.574Z,16.00
2022-12-14T08:39:52.068Z,17.73
2022-12-14T08:42:22.072Z,16.70
2022-12-14T08:44:51.881Z,17.73
2022-12-14T08:47:21.745Z,17.17
2022-12-14T08:49:51.741Z,17.47
2022-12-14T08:52:21.592Z,17.63
2022-12-14T08:54:54.010Z,16.83
2022-12-14T08:57:23.818Z,17.67
2022-12-14T09:00:03.319Z,16.57
2022-12-14T09:02:33.466Z,17.77
2022-12-14T09:05:03.411Z,17.70
2022-12-14T09:07:34.150Z,17.03
2022-12-14T09:10:08.101Z,19.73
2022-12-14T09:12:37.869Z,18.03
2022-12-14T09:15:08.547Z,17.33
2022-12-14T09:17:38.304Z,17.87
2022-12-14T09:20:08.861Z,18.33
2022-12-14T09:22:38.800Z,19.07
2022-12-14T09:25:12.051Z,17.57
2022-12-14T09:27:41.872Z,17.97
2022-12-14T09:30:12.499Z,18.93
2022-12-14T09:32:44.108Z,17.87
2022-12-14T09:35:20.577Z,16.90
2022-12-14T09:37:50.370Z,16.83
2022-12-14T09:40:27.571Z,16.77
2022-12-14T09:43:03.677Z,17.67
2022-12-14T09:45:36.488Z,15.70
2022-12-14T09:48:16.240Z,16.53
2022-12-14T09:50:49.798Z,16.93
2022-12-14T09:53:21.489Z,16.80
2022-12-14T09:55:56.515Z,17.47
2022-12-14T09:58:30.373Z,17.40
2022-12-14T10:01:11.353Z,17.57
2022-12-14T10:03:57.568Z,16.60
2022-12-14T10:06:40.684Z,16.13
2022-12-14T10:09:19.387Z,16.23
2022-12-14T10:12:03.122Z,16.40
2022-12-14T10:14:50.283Z,15.33
2022-12-14T10:17:30.554Z,16.30
2022-12-14T10:20:05.575Z,16.97
2022-12-14T10:22:42.053Z,18.23
2022-12-14T10:25:16.580Z,16.13
2022-12-14T10:28:10.321Z,16.40
2022-12-14T10:30:40.618Z,15.67
2022-12-14T10:33:19.972Z,15.30
2022-12-14T10:35:54.362Z,14.77
2022-12-14T10:38:30.298Z,14.67
2022-12-14T10:41:07.996Z,15.67
2022-12-14T10:43:50.279Z,16.60
2022-12-14T10:46:30.614Z,15.13
2022-12-14T10:49:09.198Z,15.70
2022-12-14T10:51:42.617Z,16.20
2022-12-14T10:54:23.949Z,14.47
2022-12-14T10:56:53.824Z,14.83
2022-12-14T10:59:41.423Z,15.90
2022-12-14T11:02:17.575Z,14.43
2022-12-14T11:04:52.296Z,13.77
2022-12-14T11:07:24.523Z,14.40
2022-12-14T11:09:54.904Z,14.40
2022-12-14T11:12:28.197Z,14.33
2022-12-14T11:15:03.251Z,13.90
2022-12-14T11:17:36.616Z,15.20
2022-12-14T11:20:19.278Z,12.63
2022-12-14T11:22:51.073Z,13.90
2022-12-14T11:25:37.813Z,14.33
2022-12-14T11:28:21.133Z,13.90
2022-12-14T11:31:01.569Z,12.67
2022-12-14T11:33:37.806Z,13.27
2022-12-14T11:36:09.034Z,13.87
2022-12-14T11:38:39.497Z,13.37
2022-12-14T11:41:12.039Z,13.53
2022-12-14T11:43:42.566Z,13.20
2022-12-14T11:46:15.423Z,13.70
2022-12-14T11:48:51.578Z,13.27
2022-12-14T11:51:21.310Z,14.87
2022-12-14T11:54:04.768Z,12.90
2022-12-14T11:56:34.524Z,13.87
2022-12-14T11:59:04.364Z,14.10
2022-12-14T12:01:37.019Z,13.90
2022-12-14T12:04:18.904Z,14.43
2022-12-14T12:06:48.801Z,13.30
2022-12-14T12:09:30.273Z,14.20
2022-12-14T12:12:00.272Z,12.67
2022-12-14T12:14:36.544Z,13.47
2022-12-14T12:17:20.968Z,13.63
2022-12-14T12:19:54.049Z,12.40
2022-12-14T12:22:25.688Z,11.83
2022-12-14T12:25:25.067Z,11.83
2022-12-14T12:28:02.108Z,11.13
2022-12-14T12:30:37.444Z,11.40
2022-12-14T12:33:21.262Z,11.53
2022-12-14T12:35:55.731Z,11.13
2022-12-14T12:38:40.588Z,11.40
2022-12-14T12:41:20.704Z,10.17
2022-12-14T12:43:54.959Z,10.20
2022-12-14T12:46:29.980Z,10.83
2022-12-14T12:49:07.683Z,10.57
2022-12-14T12:51:45.514Z,10.03
2022-12-14T12:54:21.877Z,10.17
2022-12-14T12:56:55.882Z,10.40
2022-12-14T12:59:34.052Z,10.20
2022-12-14T13:02:11.666Z,12.03
2022-12-14T13:04:52.166Z,11.63
2022-12-14T13:07:31.192Z,10.27
2022-12-14T13:10:06.145Z,10.53
2022-12-14T13:12:39.739Z,10.73
2022-12-14T13:15:19.268Z,10.83
2022-12-14T13:17:53.808Z,11.37
2022-12-14T13:20:30.206Z,11.47
2022-12-14T13:23:15.270Z,11.93
2022-12-14T13:25:57.838Z,10.63
2022-12-14T13:28:53.767Z,11.43
2022-12-14T13:31:36.582Z,10.70
2022-12-14T13:34:22.475Z,10.87
2022-12-14T13:37:27.440Z,12.37
2022-12-14T13:40:23.316Z,11.77
2022-12-14T13:43:02.698Z,10.30
2022-12-14T13:45:36.221Z,11.00
2022-12-14T13:48:10.902Z,11.50
2022-12-14T13:50:55.988Z,10.97
2022-12-14T13:53:37.671Z,11.27
2022-12-14T13:56:07.887Z,9.77
2022-12-14T13:58:42.425Z,10.27
2022-12-14T14:01:16.437Z,9.80
2022-12-14T14:03:56.712Z,10.80
2022-12-14T14:06:41.920Z,9.53
2022-12-14T14:09:41.626Z,10.73
2022-12-14T14:12:39.247Z,9.87
2022-12-14T14:16:19.044Z,10.27
2022-12-14T14:18:39.140Z,10.37
2022-12-14T14:21:42.687Z,9.07
2022-12-14T14:24:24.487Z,10.03
2022-12-14T14:27:13.936Z,10.23
2022-12-14T14:29:51.643Z,9.67
2022-12-14T14:32:37.248Z,9.93
2022-12-14T14:35:09.986Z,10.30
2022-12-14T14:37:42.075Z,9.37
2022-12-14T14:40:50.987Z,9.77
2022-12-14T14:43:30.382Z,10.00
2022-12-14T14:46:06.256Z,10.33
2022-12-14T14:48:39.772Z,10.07
2022-12-14T14:51:20.347Z,10.40
2022-12-14T14:53:51.003Z,10.27
2022-12-14T14:56:40.167Z,10.43
2022-12-14T14:59:42.152Z,9.73
2022-12-14T15:02:42.953Z,9.57
2022-12-14T15:08:20.995Z,9.40
2022-12-14T15:10:53.161Z,9.80
2022-12-14T15:13:26.917Z,10.00
2022-12-14T15:15:57.847Z,9.63
2022-12-14T15:18:32.060Z,10.47
2022-12-14T15:21:04.992Z,11.17
2022-12-14T15:23:39.499Z,11.47
2022-12-14T15:26:17.366Z,10.20
2022-12-14T15:28:50.881Z,10.27
2022-12-14T15:31:22.803Z,9.60
2022-12-14T15:33:55.356Z,10.33
2022-12-14T15:36:31.863Z,10.70
2022-12-14T15:39:02.292Z,11.07
2022-12-14T15:41:34.521Z,10.53
2022-12-14T15:44:04.532Z,10.80
2022-12-14T15:46:38.749Z,9.17
2022-12-14T15:49:24.704Z,8.90
2022-12-14T15:51:54.666Z,8.47
2022-12-14T15:54:30.383Z,8.90
2022-12-14T15:57:02.552Z,8.77
2022-12-14T15:59:34.381Z,9.37
2022-12-14T16:02:15.159Z,8.83
2022-12-14T16:04:48.330Z,8.33
2022-12-14T16:07:23.858Z,8.97
2022-12-14T16:09:57.289Z,8.30
2022-12-14T16:12:30.925Z,9.00
2022-12-14T16:15:03.094Z,8.30
2022-12-14T16:17:35.028Z,8.63
2022-12-14T16:20:22.407Z,8.50
2022-12-14T16:23:05.492Z,8.07
2022-12-14T16:25:37.689Z,7.97
2022-12-14T16:28:24.828Z,8.57
2022-12-14T16:31:00.615Z,7.97
2022-12-14T16:33:32.515Z,8.73
2022-12-14T16:36:10.732Z,10.40
2022-12-14T16:38:44.456Z,10.20
2022-12-14T16:41:14.577Z,8.90
2022-12-14T16:43:45.274Z,8.90
2022-12-14T16:46:20.302Z,9.07
2022-12-14T16:49:20.917Z,8.63
2022-12-14T16:52:08.428Z,8.50
2022-12-14T16:54:39.828Z,8.40
2022-12-14T16:57:20.437Z,8.00
2022-12-14T16:59:58.147Z,9.00
2022-12-14T17:02:33.744Z,9.57
2022-12-14T17:05:07.951Z,10.40
2022-12-14T17:07:40.960Z,9.03
2022-12-14T17:10:17.887Z,9.97
2022-12-14T17:12:48.067Z,8.70
2022-12-14T17:15:18.455Z,9.87
2022-12-14T17:17:49.675Z,8.80
2022-12-14T17:20:25.774Z,10.77
2022-12-14T17:23:00.307Z,11.73
2022-12-14T17:25:31.502Z,10.67
2022-12-14T17:28:01.256Z,10.17
2022-12-14T17:30:31.759Z,9.57
2022-12-14T17:33:02.224Z,10.53
2022-12-14T17:35:33.628Z,10.57
2022-12-14T17:38:05.992Z,10.37
2022-12-14T17:40:35.740Z,9.70
2022-12-14T17:43:05.520Z,11.60
2022-12-14T17:45:35.507Z,11.93
2022-12-14T17:48:05.205Z,10.83
2022-12-14T17:50:36.392Z,10.33
2022-12-14T17:53:08.744Z,10.83
2022-12-14T17:55:38.472Z,9.70
2022-12-14T17:58:08.229Z,9.30
2022-12-14T18:00:50.398Z,9.67
2022-12-14T18:03:21.507Z,10.30
2022-12-14T18:05:52.671Z,10.27
2022-12-14T18:08:26.619Z,10.30
2022-12-14T18:10:59.066Z,11.10
2022-12-14T18:13:31.333Z,10.00
2022-12-14T18:16:01.758Z,10.17
2022-12-14T18:18:32.124Z,9.67
2022-12-14T18:21:05.335Z,9.03
2022-12-14T18:23:37.635Z,10.63
2022-12-14T18:26:07.624Z,10.40
2022-12-14T18:28:37.563Z,10.10
2022-12-14T18:31:09.841Z,9.80
2022-12-14T18:33:39.973Z,10.10
2022-12-14T18:36:15.088Z,10.53
2022-12-14T18:38:49.487Z,10.67
2022-12-14T18:41:20.908Z,10.30
2022-12-14T18:43:51.150Z,10.43
2022-12-14T18:46:21.188Z,10.30
2022-12-14T18:48:51.147Z,12.00
2022-12-14T18:51:24.057Z,10.90
2022-12-14T18:53:58.962Z,11.00
2022-12-14T18:56:29.349Z,11.43
2022-12-14T18:59:00.529Z,10.80
2022-12-14T19:01:30.619Z,11.37
2022-12-14T19:04:00.681Z,11.83
2022-12-14T19:06:46.254Z,11.60
2022-12-14T19:09:20.240Z,11.70
2022-12-14T19:11:50.146Z,11.57
2022-12-14T19:14:20.055Z,11.20
2022-12-14T19:16:49.771Z,10.93
2022-12-14T19:19:23.081Z,11.40
2022-12-14T19:21:54.019Z,11.03
2022-12-14T19:24:26.353Z,10.83
2022-12-14T19:26:56.248Z,11.27
2022-12-14T19:29:25.964Z,10.43
2022-12-14T19:31:59.119Z,10.17
2022-12-14T19:34:33.244Z,10.27
2022-12-14T19:37:02.975Z,11.17
2022-12-14T19:39:35.364Z,10.67
2022-12-14T19:42:05.287Z,11.47
2022-12-14T19:44:36.159Z,11.50
2022-12-14T19:47:06.058Z,10.87
2022-12-14T19:49:35.845Z,10.77
2022-12-14T19:52:05.628Z,10.17
2022-12-14T19:54:39.967Z,11.07
2022-12-14T19:57:10.217Z,11.00
2022-12-14T19:59:41.145Z,10.80
2022-12-14T20:02:14.487Z,10.60
2022-12-14T20:04:44.751Z,10.43
2022-12-14T20:07:15.635Z,10.07
2022-12-14T20:09:48.216Z,9.97
2022-12-14T20:12:17.925Z,10.60
2022-12-14T20:14:49.535Z,9.30
2022-12-14T20:17:19.564Z,9.43
2022-12-14T20:19:49.479Z,9.70
2022-12-14T20:22:19.746Z,9.33
2022-12-14T20:24:52.396Z,10.67
2022-12-14T20:27:22.236Z,10.03
2022-12-14T20:29:52.259Z,10.10
2022-12-14T20:32:21.996Z,9.90
2022-12-14T20:34:51.791Z,9.83
2022-12-14T20:37:21.603Z,9.63
2022-12-14T20:39:54.081Z,9.63
2022-12-14T20:42:23.816Z,11.03
2022-12-14T20:44:53.548Z,9.70
2022-12-14T20:47:23.278Z,10.13
2022-12-14T20:49:52.975Z,10.00
2022-12-14T20:52:22.725Z,9.23
2022-12-14T20:54:55.007Z,9.03
2022-12-14T20:57:26.553Z,9.00
2022-12-14T20:59:59.182Z,8.23
2022-12-14T21:02:29.404Z,8.57
2022-12-14T21:04:59.220Z,8.23
2022-12-14T21:07:29.101Z,8.10
2022-12-14T21:10:01.492Z,8.17
2022-12-14T21:12:31.199Z,9.00
2022-12-14T21:15:00.999Z,8.73
2022-12-14T21:17:32.368Z,8.70
2022-12-14T21:20:02.317Z,8.33
2022-12-14T21:22:35.021Z,7.67
2022-12-14T21:25:08.137Z,7.20
2022-12-14T21:27:39.772Z,6.80
2022-12-14T21:30:12.499Z,6.70
2022-12-14T21:32:42.428Z,6.43
2022-12-14T21:35:17.522Z,7.57
2022-12-14T21:37:47.382Z,7.20
2022-12-14T21:40:32.096Z,7.10
2022-12-14T21:43:01.804Z,6.33
2022-12-14T21:45:31.581Z,6.50
2022-12-14T21:48:01.332Z,6.57
2022-12-14T21:50:31.083Z,6.80
2022-12-14T21:53:00.805Z,6.73
2022-12-14T21:55:33.257Z,7.27
2022-12-14T21:58:15.338Z,6.60
2022-12-14T22:00:45.233Z,7.17
2022-12-14T22:03:15.047Z,6.73
2022-12-14T22:05:44.785Z,7.33
2022-12-14T22:08:14.532Z,6.10
2022-12-14T22:10:46.915Z,6.57
2022-12-14T22:13:16.637Z,6.03
2022-12-14T22:15:46.341Z,4.77
2022-12-14T22:18:19.364Z,4.57
2022-12-14T22:20:49.066Z,4.67
2022-12-14T22:23:19.016Z,4.20
2022-12-14T22:25:54.256Z,3.93
2022-12-14T22:28:23.996Z,4.10
2022-12-14T22:30:53.796Z,4.23
2022-12-14T22:33:23.605Z,3.67
2022-12-14T22:35:53.353Z,3.40
2022-12-14T22:38:23.064Z,4.00
2022-12-14T22:40:55.577Z,3.47
2022-12-14T22:43:29.762Z,3.10
2022-12-14T22:46:03.272Z,3.50
2022-12-14T22:48:33.941Z,2.77
2022-12-14T22:51:04.819Z,3.13
2022-12-14T22:53:34.515Z,3.60
2022-12-14T22:56:15.388Z,3.87
2022-12-14T22:58:51.888Z,4.00
2022-12-14T23:01:22.512Z,3.80
2022-12-14T23:03:55.317Z,3.30
2022-12-14T23:06:25.263Z,3.27
2022-12-14T23:09:07.423Z,3.40
2022-12-14T23:11:52.177Z,2.90
2022-12-14T23:14:34.809Z,2.93
2022-12-14T23:17:17.193Z,2.90
2022-12-14T23:20:04.378Z,2.47
2022-12-14T23:22:47.294Z,2.50
2022-12-14T23:25:32.377Z,2.60
2022-12-14T23:28:17.360Z,2.27
2022-12-14T23:30:59.909Z,2.90
2022-12-14T23:33:43.244Z,2.40
2022-12-14T23:36:25.363Z,2.23
2022-12-14T23:39:07.455Z,1.80
2022-12-14T23:41:49.583Z,2.10
2022-12-14T23:44:34.287Z,2.23
2022-12-14T23:47:16.366Z,2.10
2022-12-14T23:49:58.466Z,1.97
2022-12-14T23:52:40.551Z,2.17
2022-12-14T23:55:24.157Z,2.10
2022-12-14T23:58:06.245Z,1.57
